VECC/CCU METAR and TAF weather

Enter ICAO airport designator
Station Type Date Time Source
VECC METAR 2019/11/18 09:00 UTC NOAA

VECC 180900Z 36005KT 3800 HZ NSC 29/18 Q1011 NOSIG


Station Type Date Time Source
VECC Decoded METAR 2019/11/18 09:00 UTC NOAA

Calcutta / Dum Dum, India (VECC) 22-39N 088-27E 6M
Nov 18, 2019 - 04:00 AM EST / 2019.11.18 0900 UTC
Wind: from the N (360 degrees) at 6 MPH (5 KT):0
Visibility: 2 mile(s):0
Weather: haze
Temperature: 84 F (29 C)
Dew Point: 64 F (18 C)
Relative Humidity: 51%
Pressure (altimeter): 29.85 in. Hg (1011 hPa)
ob: VECC 180900Z 36005KT 3800 HZ NSC 29/18 Q1011 NOSIG
cycle: 9

Station Type Date Time Source
VECC TAF 2019/11/18 06:36 UTC NOAA

TAF VECC 180500Z 1806/1912 30005KT 3500 HZ NSC
BECMG 1812/1814 00000KT
BECMG 1816/1818 2600 HZ
BECMG 1823/1901 1200 BR
BECMG 1903/1905 35005KT 2600 HZ FEW020
BECMG 1906/1908 3500 HZ

Example: see airport list